Preview of NWS' New Version of Forecast
This preview is not operational and should not be used for support decisions.

Terminal Aerodrome Forecast (TAF)

Issued by National Weather Service (NWS)

                            
000
FTUS42 KMFL 161732
TAFMIA
TAF
KMIA 161732Z 1618/1724 30009KT P6SM FEW035 SCT250
     FM170100 29003KT P6SM FEW250
     FM171500 31007KT P6SM SKC=